Time;durP1;ratioP1;P1;durP2;ratioP2;P2;SDS_P1;SDS_P2;PMS_P1;PMS_P2;Temp;Humidity;BMP_temperature;BMP_pressure;BME280_temperature;BME280_humidity;BME280_pressure;Samples;Min_cycle;Max_cycle;Signal;HPM_P1;HPM_P2
2020/12/21 00:01:40;;;;;;;64.63;28.53;;;;;;;0.52;81.11;101086.00;126108;1098;23467;-61
2020/12/21 00:04:10;;;;;;;60.75;25.50;;;;;;;0.53;81.06;101085.64;126069;1099;23366;-62
2020/12/21 00:06:39;;;;;;;62.67;25.67;;;;;;;0.54;80.85;101089.94;126085;1098;24650;-62
2020/12/21 00:09:09;;;;;;;95.70;37.30;;;;;;;0.54;80.42;101089.14;126089;1098;23379;-60
2020/12/21 00:11:41;;;;;;;106.87;40.93;;;;;;;0.55;80.68;101090.73;126175;1098;23366;-62
2020/12/21 00:14:10;;;;;;;116.90;45.03;;;;;;;0.55;80.65;101093.48;126083;1099;24864;-61
2020/12/21 00:16:44;;;;;;;116.20;43.00;;;;;;;0.54;80.17;101094.64;126092;1098;23304;-61
2020/12/21 00:19:18;;;;;;;109.70;45.63;;;;;;;0.53;80.73;101102.13;125950;1098;23379;-62
2020/12/21 00:21:49;;;;;;;115.35;43.10;;;;;;;0.52;80.29;101100.53;126144;1098;23316;-62
2020/12/21 00:24:18;;;;;;;91.75;34.23;;;;;;;0.48;80.23;101102.49;126020;1098;23598;-61
2020/12/21 00:26:50;;;;;;;82.72;32.17;;;;;;;0.45;79.71;101105.24;126319;1098;23316;-62
2020/12/21 00:29:20;;;;;;;86.23;34.33;;;;;;;0.42;80.29;101104.05;126178;1098;23328;-63
2020/12/21 00:31:50;;;;;;;74.83;32.50;;;;;;;0.41;80.44;101107.98;126123;1099;23312;-61
2020/12/21 00:34:20;;;;;;;72.10;27.90;;;;;;;0.41;80.03;101107.98;126026;1098;23366;-63
2020/12/21 00:36:52;;;;;;;67.67;27.53;;;;;;;0.38;80.12;101108.75;126180;1098;23600;-62
2020/12/21 00:39:22;;;;;;;76.10;26.37;;;;;;;0.35;79.96;101106.01;126217;1098;23312;-62
2020/12/21 00:41:51;;;;;;;65.25;26.20;;;;;;;0.27;79.62;101109.91;126182;1098;25116;-61
2020/12/21 00:44:21;;;;;;;68.25;25.75;;;;;;;0.22;80.27;101110.28;126073;1098;23450;-62
2020/12/21 00:46:50;;;;;;;61.63;25.83;;;;;;;0.21;80.50;101120.47;126119;1099;23379;-62
2020/12/21 00:49:19;;;;;;;64.90;25.53;;;;;;;0.19;80.55;101119.30;126119;1098;23312;-61
2020/12/21 00:51:48;;;;;;;56.73;22.90;;;;;;;0.18;79.91;101123.21;126050;1098;23312;-60
2020/12/21 00:54:18;;;;;;;62.93;24.57;;;;;;;0.16;80.40;101123.61;126105;1099;28251;-61
2020/12/21 00:56:47;;;;;;;60.80;24.80;;;;;;;0.15;80.36;101123.97;126200;1098;23651;-61
2020/12/21 00:59:16;;;;;;;60.13;25.50;;;;;;;0.12;79.62;101122.81;126101;1098;23320;-62
2020/12/21 01:01:46;;;;;;;57.15;25.32;;;;;;;0.10;80.40;101140.84;126156;1099;23399;-62
2020/12/21 01:04:15;;;;;;;65.67;24.77;;;;;;;0.09;80.41;101137.30;126127;1098;23366;-60
2020/12/21 01:06:44;;;;;;;61.67;24.37;;;;;;;0.09;79.68;101140.04;126002;1098;23465;-61
2020/12/21 01:09:15;;;;;;;65.03;24.63;;;;;;;0.05;79.47;101135.70;126135;1098;23358;-61
2020/12/21 01:11:45;;;;;;;61.40;25.47;;;;;;;0.04;80.57;101131.41;126058;1098;23317;-60
2020/12/21 01:14:14;;;;;;;60.25;24.05;;;;;;;0.04;80.78;101125.91;126060;1098;23777;-61
2020/12/21 01:16:43;;;;;;;56.23;23.30;;;;;;;0.02;79.95;101123.56;126054;1098;25086;-61
2020/12/21 01:19:13;;;;;;;61.47;23.73;;;;;;;0.02;79.71;101131.00;126121;1099;23311;-62
2020/12/21 01:21:44;;;;;;;64.30;22.98;;;;;;;-0.01;80.07;101129.81;126345;1098;23301;-63
2020/12/21 01:24:13;;;;;;;65.47;24.67;;;;;;;-0.02;80.75;101126.27;126065;1098;23366;-61
2020/12/21 01:26:42;;;;;;;61.90;24.40;;;;;;;-0.02;80.65;101134.50;126206;1098;23785;-61
2020/12/21 01:29:11;;;;;;;59.80;24.87;;;;;;;-0.03;80.61;101132.95;126157;1098;23474;-62
2020/12/21 01:31:40;;;;;;;70.00;24.40;;;;;;;-0.04;80.65;101130.56;126033;1094;23327;-62
2020/12/21 01:34:12;;;;;;;76.67;28.87;;;;;;;-0.05;80.03;101129.80;126206;1098;26430;-63
2020/12/21 01:36:42;;;;;;;74.73;31.17;;;;;;;-0.06;80.48;101133.70;126115;1098;23319;-62
2020/12/21 01:39:11;;;;;;;84.63;35.20;;;;;;;-0.08;79.90;101138.00;126035;1098;23379;-62
2020/12/21 01:41:41;;;;;;;79.95;32.25;;;;;;;-0.11;80.20;101136.05;126144;1098;27842;-61
2020/12/21 01:44:10;;;;;;;56.03;25.90;;;;;;;-0.15;80.01;101127.80;126231;1098;26776;-61
2020/12/21 01:46:40;;;;;;;53.67;21.60;;;;;;;-0.17;80.35;101132.09;126172;1098;23313;-61
2020/12/21 01:49:09;;;;;;;45.47;18.73;;;;;;;-0.19;79.86;101123.46;126292;1098;25039;-62
2020/12/21 01:51:40;;;;;;;51.93;20.00;;;;;;;-0.21;80.35;101126.56;126120;1098;23418;-63
2020/12/21 01:54:10;;;;;;;47.15;21.05;;;;;;;-0.22;80.28;101121.47;126173;1098;25331;-63
2020/12/21 01:56:42;;;;;;;66.37;27.17;;;;;;;-0.23;80.09;101119.91;126206;1098;23366;-61
2020/12/21 01:59:12;;;;;;;62.13;28.97;;;;;;;-0.26;80.27;101124.20;126187;1098;23309;-60
2020/12/21 02:01:43;;;;;;;65.10;30.35;;;;;;;-0.27;79.57;101133.59;126126;1098;23377;-62
2020/12/21 02:04:12;;;;;;;66.40;29.80;;;;;;;-0.29;79.63;101132.43;126322;1098;23412;-61
2020/12/21 02:06:42;;;;;;;68.00;30.13;;;;;;;-0.30;80.36;101130.84;126199;1098;23405;-62
2020/12/21 02:09:12;;;;;;;54.60;26.60;;;;;;;-0.36;79.43;101132.37;126240;1098;23327;-61
2020/12/21 02:11:43;;;;;;;57.60;25.63;;;;;;;-0.41;79.32;101135.47;126155;1098;23318;-61
2020/12/21 02:14:12;;;;;;;52.38;22.58;;;;;;;-0.45;79.46;101143.69;126220;1098;27938;-61
2020/12/21 02:16:41;;;;;;;51.07;21.03;;;;;;;-0.50;79.96;101148.76;126196;1098;23383;-61
2020/12/21 02:19:10;;;;;;;49.00;20.90;;;;;;;-0.56;79.34;101140.08;126131;1094;23312;-61
2020/12/21 02:21:40;;;;;;;50.53;22.53;;;;;;;-0.55;80.58;101143.62;126094;1098;27843;-62
2020/12/21 02:24:09;;;;;;;44.73;20.33;;;;;;;-0.57;79.58;101143.22;126325;1099;25102;-61
2020/12/21 02:26:38;;;;;;;50.83;19.93;;;;;;;-0.59;79.45;101145.55;126074;1098;23493;-61
2020/12/21 02:29:08;;;;;;;49.03;21.10;;;;;;;-0.59;79.46;101145.55;126137;1098;23328;-62
2020/12/21 02:31:37;;;;;;;48.27;19.97;;;;;;;-0.60;80.20;101141.25;126313;1098;23517;-62
2020/12/21 02:34:07;;;;;;;48.83;19.95;;;;;;;-0.60;79.49;101152.22;126162;1098;25209;-61
2020/12/21 02:36:36;;;;;;;42.93;19.33;;;;;;;-0.63;79.40;101147.48;126156;1098;23308;-62
2020/12/21 02:39:06;;;;;;;42.58;18.10;;;;;;;-0.64;80.19;101145.92;126285;1098;23368;-62
2020/12/21 02:41:36;;;;;;;45.70;19.10;;;;;;;-0.64;79.62;101152.17;126235;1098;23422;-60
2020/12/21 02:44:05;;;;;;;48.80;18.98;;;;;;;-0.65;79.36;101147.08;126338;1093;26641;-65
2020/12/21 02:46:34;;;;;;;39.37;18.67;;;;;;;-0.68;80.13;101145.88;126100;1098;23317;-61
2020/12/21 02:49:03;;;;;;;39.40;17.27;;;;;;;-0.65;79.50;101141.59;126165;1098;23349;-61
2020/12/21 02:51:33;;;;;;;41.90;17.40;;;;;;;-0.68;79.11;101132.17;126167;1093;23304;-61
2020/12/21 02:54:02;;;;;;;39.33;16.13;;;;;;;-0.69;80.15;101129.81;126167;1098;23847;-63
2020/12/21 02:56:31;;;;;;;38.87;17.57;;;;;;;-0.68;79.44;101131.41;126290;1098;23390;-61
2020/12/21 02:59:00;;;;;;;44.93;18.47;;;;;;;-0.69;80.12;101138.05;126149;1098;26428;-61
2020/12/21 03:01:30;;;;;;;49.35;20.05;;;;;;;-0.67;80.23;101139.24;126178;1099;30107;-61
2020/12/21 03:03:59;;;;;;;45.77;18.73;;;;;;;-0.63;80.47;101137.31;126276;1098;23316;-64
2020/12/21 03:06:28;;;;;;;48.53;19.03;;;;;;;-0.58;80.38;101130.69;126110;1098;23320;-60
2020/12/21 03:08:57;;;;;;;48.93;19.97;;;;;;;-0.57;80.94;101130.30;126276;1098;23312;-62
2020/12/21 03:11:27;;;;;;;58.95;24.45;;;;;;;-0.54;80.17;101128.75;126303;1098;23345;-62
2020/12/21 03:13:56;;;;;;;58.60;27.70;;;;;;;-0.53;80.12;101119.34;126212;1098;23425;-60
2020/12/21 03:16:25;;;;;;;59.27;26.97;;;;;;;-0.52;80.15;101118.19;126143;1098;23312;-61
2020/12/21 03:18:55;;;;;;;58.15;25.20;;;;;;;-0.53;80.72;101109.16;126106;1098;23315;-61
2020/12/21 03:21:24;;;;;;;60.53;23.67;;;;;;;-0.50;81.12;101104.87;126122;1098;28293;-61
2020/12/21 03:23:55;;;;;;;46.27;21.00;;;;;;;-0.47;81.02;101106.83;126115;1098;23398;-62
2020/12/21 03:26:24;;;;;;;43.00;19.37;;;;;;;-0.46;81.35;101103.73;126123;1098;26768;-61
2020/12/21 03:28:53;;;;;;;45.17;20.37;;;;;;;-0.46;81.41;101098.24;126151;1099;23379;-61
2020/12/21 03:31:23;;;;;;;46.07;18.83;;;;;;;-0.43;81.26;101110.38;126171;1098;23770;-61
2020/12/21 03:33:52;;;;;;;43.83;19.20;;;;;;;-0.40;81.40;101118.66;126200;1099;26776;-62
2020/12/21 03:36:22;;;;;;;39.30;17.70;;;;;;;-0.33;81.09;101109.68;126235;1098;23348;-61
2020/12/21 03:38:51;;;;;;;46.70;18.53;;;;;;;-0.28;81.80;101110.09;126278;1099;23328;-63
2020/12/21 03:41:20;;;;;;;40.87;17.67;;;;;;;-0.27;82.05;101113.62;126121;1098;23372;-61
2020/12/21 03:43:49;;;;;;;40.20;17.30;;;;;;;-0.27;82.15;101111.64;126189;1098;27935;-62
2020/12/21 03:46:19;;;;;;;41.97;16.13;;;;;;;-0.22;81.67;101118.73;126187;1098;25081;-61
2020/12/21 03:48:49;;;;;;;38.95;17.12;;;;;;;-0.16;81.44;101111.70;126268;1098;23348;-61
2020/12/21 03:51:19;;;;;;;43.23;16.17;;;;;;;-0.13;81.77;101110.94;126118;1099;27109;-61
2020/12/21 03:53:48;;;;;;;42.10;17.70;;;;;;;-0.06;82.28;101111.75;125985;1098;23249;-59
2020/12/21 03:56:17;;;;;;;43.93;17.77;;;;;;;-0.02;82.00;101114.50;126176;1099;23280;-61
2020/12/21 03:58:47;;;;;;;48.73;19.30;;;;;;;0.01;81.47;101108.25;126105;1098;23366;-62
2020/12/21 04:01:16;;;;;;;40.00;17.53;;;;;;;0.03;81.98;101103.16;126149;1098;23312;-62
2020/12/21 04:03:46;;;;;;;50.25;20.50;;;;;;;0.05;82.28;101105.51;126328;1098;23312;-63
2020/12/21 04:06:17;;;;;;;72.17;28.37;;;;;;;0.08;81.85;101108.28;126080;1098;23311;-62
2020/12/21 04:08:47;;;;;;;108.77;35.30;;;;;;;0.11;81.70;101115.73;126274;1099;23373;-62
2020/12/21 04:11:16;;;;;;;114.67;40.00;;;;;;;0.15;81.74;101112.98;126143;1098;23878;-61
2020/12/21 04:13:46;;;;;;;88.92;29.00;;;;;;;0.18;81.58;101109.48;126278;1098;23378;-61
2020/12/21 04:16:16;;;;;;;69.30;25.03;;;;;;;0.21;81.75;101114.98;126068;1098;25047;-61
2020/12/21 04:18:45;;;;;;;60.93;22.60;;;;;;;0.20;81.65;101118.91;126066;1098;23517;-60
2020/12/21 04:21:15;;;;;;;61.85;25.55;;;;;;;0.23;81.91;101112.63;125898;1098;23377;-61
2020/12/21 04:23:44;;;;;;;69.20;27.93;;;;;;;0.24;82.46;101108.72;125880;1098;23383;-61
2020/12/21 04:26:14;;;;;;;88.70;30.35;;;;;;;0.28;82.24;101109.52;125965;1098;23351;-62
2020/12/21 04:28:43;;;;;;;98.23;31.83;;;;;;;0.30;82.28;101106.38;126036;1098;25080;-63
2020/12/21 04:31:12;;;;;;;58.40;25.57;;;;;;;0.33;82.67;101113.84;126127;1099;23358;-62
2020/12/21 04:33:41;;;;;;;66.80;25.77;;;;;;;0.35;82.32;101109.52;126063;1098;23300;-62
2020/12/21 04:36:12;;;;;;;77.30;28.50;;;;;;;0.38;82.50;101103.26;126098;1098;23312;-62
2020/12/21 04:38:41;;;;;;;;;;;;;;;0.42;83.04;101109.55;126211;1098;23366;-61
2020/12/21 04:41:11;;;;;;;85.00;33.63;;;;;;;0.44;82.21;101107.19;126127;1098;21607;-61
2020/12/21 04:43:40;;;;;;;95.62;39.65;;;;;;;0.47;82.44;101105.64;126249;1098;23376;-63
2020/12/21 04:46:10;;;;;;;102.53;41.20;;;;;;;0.48;82.33;101110.73;126264;1098;23366;-61
2020/12/21 04:48:40;;;;;;;118.75;42.05;;;;;;;0.50;82.43;101113.08;126238;1098;23377;-62
2020/12/21 04:51:10;;;;;;;122.53;43.23;;;;;;;0.53;82.87;101115.06;126318;1098;23359;-61
2020/12/21 04:53:40;;;;;;;112.30;40.35;;;;;;;0.59;83.31;101116.25;126125;1098;23317;-61
2020/12/21 04:56:09;;;;;;;109.40;38.70;;;;;;;0.66;82.65;101119.78;126161;1098;23647;-61
2020/12/21 04:58:46;;;;;;;105.73;39.30;;;;;;;0.70;82.82;101117.06;126225;1098;27840;-62
2020/12/21 05:01:15;;;;;;;104.73;38.13;;;;;;;0.71;82.36;101110.37;126115;1098;23377;-61
2020/12/21 05:03:50;;;;;;;102.87;37.30;;;;;;;0.72;82.86;101114.70;126097;1098;23312;-63
2020/12/21 05:06:19;;;;;;;102.30;40.10;;;;;;;0.73;83.05;101119.01;126266;1099;23359;-61
2020/12/21 05:09:00;;;;;;;94.03;38.30;;;;;;;0.74;82.51;101115.89;126406;1098;26775;-61
2020/12/21 05:11:30;;;;;;;92.83;37.57;;;;;;;0.78;82.70;101113.93;126111;1098;26463;-63
2020/12/21 05:14:10;;;;;;;106.87;38.98;;;;;;;0.80;83.14;101122.56;126168;1098;23409;-63
2020/12/21 05:16:39;;;;;;;124.00;37.40;;;;;;;0.83;83.34;101120.22;126043;1098;23390;-61
2020/12/21 05:19:20;;;;;;;101.47;34.00;;;;;;;0.85;83.13;101123.36;126223;1098;23358;-61
2020/12/21 05:21:55;;;;;;;81.67;28.63;;;;;;;0.86;82.99;101119.41;126163;1098;23958;-60
2020/12/21 05:24:24;;;;;;;67.03;27.43;;;;;;;0.88;83.13;101122.55;126131;1098;23871;-62
2020/12/21 05:26:54;;;;;;;61.53;25.52;;;;;;;0.88;82.82;101122.55;126454;1098;26813;-62
2020/12/21 05:29:27;;;;;;;68.25;27.80;;;;;;;0.88;83.21;101126.09;126267;1093;27373;-63
2020/12/21 05:31:58;;;;;;;70.50;27.83;;;;;;;0.90;83.39;101133.95;126191;1098;23359;-62
2020/12/21 05:34:29;;;;;;;64.07;27.47;;;;;;;0.90;82.88;101134.73;126311;1099;27938;-61
2020/12/21 05:37:10;;;;;;;69.35;25.80;;;;;;;0.92;82.73;101126.88;126094;1098;23316;-63
2020/12/21 05:39:51;;;;;;;60.57;23.57;;;;;;;0.95;83.27;101134.36;126332;1098;23312;-64
2020/12/21 05:42:21;;;;;;;61.37;25.63;;;;;;;1.00;83.31;101131.20;126176;1099;23504;-63
2020/12/21 05:45:01;;;;;;;53.30;22.65;;;;;;;1.04;83.21;101126.48;126202;1098;25048;-63
2020/12/21 05:47:30;;;;;;;50.95;22.32;;;;;;;1.10;82.88;101137.87;126117;1098;23499;-62
2020/12/21 05:50:01;;;;;;;55.17;21.37;;;;;;;1.13;83.12;101132.39;126251;1098;26372;-60
2020/12/21 05:52:33;;;;;;;47.73;19.73;;;;;;;1.17;82.84;101135.13;126066;1098;23374;-60
2020/12/21 05:55:08;;;;;;;46.45;20.00;;;;;;;1.19;83.43;101138.27;126287;1098;23315;-60
2020/12/21 05:57:39;;;;;;;54.93;22.87;;;;;;;1.19;83.39;101138.27;126359;1098;23379;-60
2020/12/21 06:00:11;;;;;;;47.73;21.60;;;;;;;1.20;83.32;101137.11;126209;1098;23583;-62
2020/12/21 06:02:41;;;;;;;45.70;19.77;;;;;;;1.21;83.12;101133.16;126195;1098;23309;-62
2020/12/21 06:05:12;;;;;;;42.40;18.60;;;;;;;1.22;82.83;101137.50;126043;1098;23323;-61
2020/12/21 06:07:50;;;;;;;33.77;15.73;;;;;;;1.22;83.10;101143.00;126335;1099;23373;-61
2020/12/21 06:10:19;;;;;;;64.87;33.77;;;;;;;1.26;83.21;101152.80;126178;1098;26837;-61
2020/12/21 06:12:51;;;;;;;60.77;31.73;;;;;;;1.29;83.26;101145.73;126143;1093;23315;-62
2020/12/21 06:15:23;;;;;;;53.57;28.23;;;;;;;1.31;83.11;101146.91;126281;1098;25159;-62
2020/12/21 06:17:52;;;;;;;41.97;20.03;;;;;;;1.32;82.88;101151.25;126263;1093;23324;-62
2020/12/21 06:20:22;;;;;;;45.90;20.10;;;;;;;1.33;83.07;101152.01;126057;1099;23419;-63
2020/12/21 06:22:52;;;;;;;40.10;18.55;;;;;;;1.34;83.24;101159.09;126282;1098;23439;-60
2020/12/21 06:25:25;;;;;;;46.47;19.63;;;;;;;1.36;83.44;101160.28;126149;1098;26392;-63
2020/12/21 06:27:55;;;;;;;44.80;19.87;;;;;;;1.37;82.83;101156.33;129880;1099;23281;-64
2020/12/21 06:30:32;;;;;;;46.33;21.70;;;;;;;1.39;83.70;101164.19;126230;1099;23247;-63
2020/12/21 06:33:05;;;;;;;59.93;28.47;;;;;;;1.42;83.04;101166.16;126162;1098;23425;-67
2020/12/21 06:35:43;;;;;;;59.57;26.67;;;;;;;1.43;82.94;101163.01;126150;1098;23423;-67
2020/12/21 06:38:12;;;;;;;55.53;24.10;;;;;;;1.45;83.35;101168.11;126223;1098;27111;-62
2020/12/21 06:40:42;;;;;;;44.43;20.43;;;;;;;1.47;83.12;101168.50;126165;1098;23312;-59
2020/12/21 06:43:14;;;;;;;47.17;20.70;;;;;;;1.51;83.80;101169.30;126195;1098;23319;-60
2020/12/21 06:45:43;;;;;;;44.80;20.83;;;;;;;1.51;83.22;101172.82;126238;1098;23312;-62
2020/12/21 06:48:23;;;;;;;47.80;24.10;;;;;;;1.55;83.33;101170.09;126183;1098;23676;-59
2020/12/21 06:50:52;;;;;;;60.85;28.50;;;;;;;1.58;83.77;101170.07;126514;1098;23404;-62
2020/12/21 06:53:21;;;;;;;59.13;27.77;;;;;;;1.61;83.64;101166.52;126089;1098;23463;-61
2020/12/21 06:56:18;;;;;;;75.23;34.93;;;;;;;1.63;83.37;101161.39;126472;1099;29413;-63
2020/12/21 06:58:52;;;;;;;81.23;39.43;;;;;;;1.64;83.53;101167.69;126467;1098;23377;-63
2020/12/21 07:01:23;;;;;;;64.80;34.67;;;;;;;1.63;83.11;101175.16;126147;1098;28340;-62
2020/12/21 07:03:53;;;;;;;58.40;31.97;;;;;;;1.64;83.49;101175.95;126224;1098;23312;-63
2020/12/21 07:06:23;;;;;;;61.33;32.50;;;;;;;1.63;83.02;101171.64;126289;1099;23450;-62
2020/12/21 07:08:57;;;;;;;64.80;32.17;;;;;;;1.65;83.51;101170.05;126446;1093;23367;-63
2020/12/21 07:11:27;;;;;;;53.33;25.13;;;;;;;1.65;83.60;101177.53;126169;1099;23432;-62
2020/12/21 07:13:57;;;;;;;54.80;24.50;;;;;;;1.65;83.53;101172.03;126077;1099;23379;-64
2020/12/21 07:16:29;;;;;;;75.07;33.63;;;;;;;1.66;83.06;101173.59;126958;1098;23647;-62
2020/12/21 07:19:00;;;;;;;143.27;53.93;;;;;;;1.70;83.61;101168.09;126080;1098;27852;-60
2020/12/21 07:21:35;;;;;;;205.40;69.20;;;;;;;1.73;83.78;101173.59;125950;1098;23372;-61
2020/12/21 07:24:09;;;;;;;190.15;65.80;;;;;;;1.76;83.60;101169.27;126013;1098;24200;-61
2020/12/21 07:26:39;;;;;;;187.80;71.25;;;;;;;1.80;83.72;101175.55;125931;1099;23923;-62
2020/12/21 07:29:10;;;;;;;160.97;64.13;;;;;;;1.84;83.92;101163.34;126046;1098;23312;-64
2020/12/21 07:31:44;;;;;;;182.30;70.90;;;;;;;1.90;83.86;101167.26;125948;1098;23378;-64
2020/12/21 07:34:16;;;;;;;164.53;64.90;;;;;;;1.96;83.42;101170.38;126232;1098;28229;-62
2020/12/21 07:36:46;;;;;;;126.07;48.23;;;;;;;1.99;83.48;101175.08;126474;1093;23316;-62
2020/12/21 07:39:17;;;;;;;120.30;44.80;;;;;;;2.01;83.50;101167.20;125946;1098;29902;-62
2020/12/21 07:41:51;;;;;;;125.60;49.43;;;;;;;2.03;83.52;101176.64;126100;1098;23370;-64
2020/12/21 07:44:26;;;;;;;111.90;47.15;;;;;;;2.05;83.55;101168.77;125987;1098;26197;-63
2020/12/21 07:47:00;;;;;;;117.10;52.10;;;;;;;2.10;83.49;101173.88;126250;1099;25050;-62
2020/12/21 07:49:39;;;;;;;88.93;41.73;;;;;;;2.15;83.64;101173.44;126101;1098;23460;-60
2020/12/21 07:52:10;;;;;;;86.97;39.40;;;;;;;2.20;83.46;101178.55;125897;1098;23812;-62
2020/12/21 07:54:46;;;;;;;83.10;39.77;;;;;;;2.22;83.90;101172.64;126307;1099;27905;-62
2020/12/21 07:57:20;;;;;;;75.57;36.00;;;;;;;2.24;83.66;101173.81;125837;1098;23315;-63
2020/12/21 07:59:58;;;;;;;72.93;33.10;;;;;;;2.26;83.55;101182.46;126057;1098;23426;-62
2020/12/21 08:02:28;;;;;;;59.93;27.27;;;;;;;2.26;83.41;101179.70;126546;1092;23309;-61
2020/12/21 08:04:58;;;;;;;57.85;25.15;;;;;;;2.28;83.54;101185.60;125915;1098;23313;-62
2020/12/21 08:07:28;;;;;;;;;;;;;;;2.30;83.80;101185.98;126768;1098;23347;-62
2020/12/21 08:09:58;;;;;;;66.63;28.83;;;;;;;2.33;83.35;101171.42;126564;1098;21523;-61
2020/12/21 08:12:32;;;;;;;75.62;34.35;;;;;;;2.35;84.03;101174.56;126497;1093;26417;-61
2020/12/21 08:15:02;;;;;;;72.17;33.27;;;;;;;2.40;83.52;101176.88;126245;1098;23391;-62
2020/12/21 08:17:33;;;;;;;71.60;32.30;;;;;;;2.43;83.41;101175.30;125976;1099;23397;-60
2020/12/21 08:20:07;;;;;;;66.75;29.80;;;;;;;2.44;83.65;101177.65;126123;1098;23648;-61
2020/12/21 08:22:38;;;;;;;63.47;28.03;;;;;;;2.45;83.75;101181.98;125862;1093;23309;-61
2020/12/21 08:25:10;;;;;;;74.57;32.37;;;;;;;2.46;83.87;101175.28;125944;1098;23501;-61
2020/12/21 08:27:44;;;;;;;76.30;30.70;;;;;;;2.46;83.45;101169.77;126019;1098;23327;-61
2020/12/21 08:30:15;;;;;;;62.23;27.93;;;;;;;2.50;83.95;101174.48;126613;1098;27111;-61
2020/12/21 08:32:46;;;;;;;79.23;31.77;;;;;;;2.52;84.03;101172.11;126009;1098;23312;-63
2020/12/21 08:35:25;;;;;;;78.87;31.97;;;;;;;2.55;83.83;101172.09;126731;1098;23379;-61
2020/12/21 08:38:11;;;;;;;89.45;37.05;;;;;;;2.58;83.69;101184.28;126133;1092;23422;-61
2020/12/21 08:40:42;;;;;;;102.70;40.90;;;;;;;2.61;83.48;101183.50;126560;1099;27902;-61
2020/12/21 08:43:12;;;;;;;106.87;41.83;;;;;;;2.66;83.89;101189.36;125914;1098;23447;-63
2020/12/21 08:45:41;;;;;;;103.47;41.87;;;;;;;2.70;83.98;101187.38;126093;1098;23450;-61
2020/12/21 08:48:11;;;;;;;89.50;39.03;;;;;;;2.72;83.72;101187.75;126170;1098;23319;-63
2020/12/21 08:50:41;;;;;;;90.60;38.67;;;;;;;2.73;83.57;101200.33;126185;1098;28295;-62
2020/12/21 08:53:11;;;;;;;;;;;;;;;2.76;83.72;101204.27;126237;1098;23296;-62
2020/12/21 08:55:41;;;;;;;91.57;38.77;;;;;;;2.77;83.64;101208.61;126106;1098;21506;-62
2020/12/21 08:58:11;;;;;;;81.57;35.45;;;;;;;2.79;83.63;101204.27;126352;1098;23361;-63
2020/12/21 09:00:43;;;;;;;71.80;31.10;;;;;;;2.83;83.36;101209.75;125873;1098;23479;-62
2020/12/21 09:03:13;;;;;;;59.17;26.67;;;;;;;2.84;83.27;101211.30;126571;1098;26829;-62
2020/12/21 09:05:44;;;;;;;58.80;26.80;;;;;;;2.88;83.58;101199.07;126106;1098;23679;-61
2020/12/21 09:08:15;;;;;;;53.95;25.95;;;;;;;2.93;83.56;101206.14;126088;1099;27929;-60
2020/12/21 09:10:46;;;;;;;63.77;29.73;;;;;;;2.95;83.80;101203.76;126202;1098;23416;-60
2020/12/21 09:13:16;;;;;;;64.23;32.60;;;;;;;2.97;83.72;101204.14;125995;1098;23517;-60
2020/12/21 09:15:46;;;;;;;65.65;31.35;;;;;;;3.00;83.42;101203.34;126248;1098;23378;-62
2020/12/21 09:18:17;;;;;;;66.87;31.87;;;;;;;3.03;83.53;101203.31;125990;1098;23409;-64
2020/12/21 09:20:48;;;;;;;60.45;29.95;;;;;;;3.05;83.60;101206.45;125865;1098;23896;-60
2020/12/21 09:23:19;;;;;;;59.63;29.83;;;;;;;3.07;83.90;101208.80;125886;1098;23400;-62
2020/12/21 09:25:49;;;;;;;57.37;30.53;;;;;;;3.09;83.67;101209.17;126328;1098;28226;-60
2020/12/21 09:28:19;;;;;;;72.53;34.08;;;;;;;3.10;83.55;101208.77;126010;1098;23311;-62
2020/12/21 09:30:48;;;;;;;;;;;;;;;3.11;83.40;101215.08;126216;1099;27922;-64
2020/12/21 09:33:18;;;;;;;64.23;32.30;;;;;;;3.11;83.52;101212.31;126018;1098;25053;-63
2020/12/21 09:35:48;;;;;;;73.42;32.93;;;;;;;3.11;83.71;101212.31;126194;1099;23756;-61
2020/12/21 09:38:20;;;;;;;76.27;36.53;;;;;;;3.12;83.54;101211.14;126047;1098;23517;-62
2020/12/21 09:40:53;;;;;;;90.20;49.65;;;;;;;3.14;83.37;101209.55;126187;1098;26604;-64
2020/12/21 09:43:24;;;;;;;82.77;38.93;;;;;;;3.15;83.57;101204.80;126402;1098;26373;-63
2020/12/21 09:45:54;;;;;;;63.58;30.77;;;;;;;3.17;83.95;101199.66;126140;1098;23313;-65
2020/12/21 09:48:25;;;;;;;70.22;31.15;;;;;;;3.20;83.74;101204.38;126056;1099;23421;-62
2020/12/21 09:50:56;;;;;;;77.60;36.65;;;;;;;3.22;84.00;101207.52;126513;1099;26421;-61
2020/12/21 09:53:26;;;;;;;109.60;53.33;;;;;;;3.26;84.00;101205.52;126347;1099;23413;-62
2020/12/21 09:55:55;;;;;;;142.28;68.02;;;;;;;3.27;83.82;101196.03;126176;1098;23366;-62
2020/12/21 09:58:27;;;;;;;110.47;56.90;;;;;;;3.28;83.47;101186.58;126174;1098;23416;-61
2020/12/21 10:00:59;;;;;;;128.20;66.55;;;;;;;3.28;84.00;101197.61;127467;1099;23366;-64
2020/12/21 10:03:29;;;;;;;134.87;69.53;;;;;;;3.28;83.82;101194.84;126398;1098;23777;-63
2020/12/21 10:05:58;;;;;;;;;;;;;;;3.29;83.74;101193.64;129579;1099;23573;-62
2020/12/21 10:08:28;;;;;;;202.53;93.23;;;;;;;3.32;83.63;101192.84;126106;1099;21609;-62
2020/12/21 10:10:59;;;;;;;212.30;106.97;;;;;;;3.36;83.78;101196.36;126053;1098;23419;-62
2020/12/21 10:13:30;;;;;;;152.95;88.30;;;;;;;3.41;84.04;101198.70;126067;1098;23382;-62
2020/12/21 10:16:02;;;;;;;90.30;48.90;;;;;;;3.47;83.95;101199.83;126020;1099;26776;-60
2020/12/21 10:18:32;;;;;;;77.58;42.67;;;;;;;3.50;83.72;101201.75;126390;1098;23412;-63
2020/12/21 10:21:02;;;;;;;74.92;36.13;;;;;;;3.52;83.67;101202.13;126334;1099;23387;-62
2020/12/21 10:23:33;;;;;;;83.07;38.77;;;;;;;3.54;83.78;101205.27;126433;1099;26421;-61
2020/12/21 10:26:18;;;;;;;76.13;37.97;;;;;;;3.57;83.63;101211.95;126109;1098;23379;-62
2020/12/21 10:28:51;;;;;;;75.70;35.90;;;;;;;3.60;83.57;101205.63;126232;1098;27820;-64
2020/12/21 10:31:21;;;;;;;67.00;33.00;;;;;;;3.59;83.64;101198.52;127825;1098;25163;-62
2020/12/21 10:33:51;;;;;;;72.55;36.25;;;;;;;3.62;83.45;101201.24;126369;1098;26036;-63
2020/12/21 10:36:21;;;;;;;99.55;54.18;;;;;;;3.65;83.83;101192.16;126331;1099;23503;-62
2020/12/21 10:38:50;;;;;;;81.95;44.93;;;;;;;3.71;83.53;101200.77;126555;1099;23853;-63
2020/12/21 10:41:20;;;;;;;78.12;41.95;;;;;;;3.74;83.73;101192.47;130232;1099;23149;-63
2020/12/21 10:43:50;;;;;;;69.80;38.60;;;;;;;3.80;83.97;101187.28;126559;1098;23479;-62
2020/12/21 10:46:23;;;;;;;74.77;39.97;;;;;;;3.85;83.87;101187.61;126149;1098;23366;-62
2020/12/21 10:48:53;;;;;;;81.20;43.10;;;;;;;3.88;83.82;101186.80;126114;1099;28254;-62
2020/12/21 10:51:31;;;;;;;80.47;41.90;;;;;;;3.92;83.66;101192.28;126091;1093;23366;-63
2020/12/21 10:54:02;;;;;;;92.00;47.40;;;;;;;3.94;83.74;101176.87;126174;1098;23443;-62
2020/12/21 10:56:32;;;;;;;106.87;53.37;;;;;;;3.96;83.68;101177.23;126710;1098;25255;-63
2020/12/21 10:59:01;;;;;;;95.53;48.48;;;;;;;4.00;83.77;101172.45;126259;1098;23377;-63
2020/12/21 11:01:31;;;;;;;91.73;45.93;;;;;;;4.05;83.77;101166.49;126237;1098;23661;-63
2020/12/21 11:04:01;;;;;;;77.87;45.25;;;;;;;4.12;84.00;101175.89;126078;1098;23457;-61
2020/12/21 11:06:31;;;;;;;81.22;43.10;;;;;;;4.18;84.03;101172.23;126056;1098;23312;-62
2020/12/21 11:09:02;;;;;;;104.10;53.47;;;;;;;4.23;83.85;101171.00;126076;1099;23366;-62
2020/12/21 11:11:32;;;;;;;104.37;52.23;;;;;;;4.25;83.59;101174.92;126042;1098;23458;-63
2020/12/21 11:14:03;;;;;;;;;;;;;;;4.30;83.65;101173.69;126292;1098;23422;-62
2020/12/21 11:16:33;;;;;;;60.07;26.77;;;;;;;4.29;83.51;101172.91;126129;1098;21493;-62
2020/12/21 11:19:03;;;;;;;58.90;25.92;;;;;;;4.31;83.67;101173.27;126075;1098;23377;-62
2020/12/21 11:21:38;;;;;;;59.75;27.85;;;;;;;4.35;83.72;101175.98;126196;1099;23332;-63
2020/12/21 11:24:08;;;;;;;59.67;28.27;;;;;;;4.40;83.58;101181.06;126140;1099;23379;-63